Aérodrome :
LOGIN :

S'inscrire | Disclaimer

   EN    FR    IT 

 










Légende :    VFR   VFR Marginal   IFR   IFR Intensif   IFR Très Intensif
Visi : 
Plafond : 
>= 8 km
>= 3000ft
5 à 8 km
1000 à 3000 ft
1500m à 5 km
500 à 1000 ft
800 à 1500m
200 à 500 ft
< 800m
< 200 ft
Symboles :   Orages  Brouillard  Fortes neiges  Fortes précipitations  Vent > 20 kt
SIGMETs :   Divers  Orages  Givrage  Turbulence  Onde Orograph.  Cendres Volcan.






- Altitude de l'aérodrome : 20 ft


EBFN - Koksijde

DERNIER METAR :
  • 122155Z AUTO VRB02KT 9999 NCD 14/09 Q1027 BLU

METARs EXPIRÉS :
  • 122125Z AUTO VRB02KT 9999 NCD 14/09 Q1027 BLU
  • 122118Z AUTO VRB02KT 9999 NCD 14/09 Q1027 BLU
  • 122107Z AUTO VRB02KT 5000 NCD 14/09 Q1027 WHT
  • 122055Z AUTO VRB02KT 9999 NCD 14/09 Q1027 BLU
  • 122025Z AUTO 06003KT 9999 -RA NCD 15/09 Q1027 BLU
  • 122022Z AUTO VRB02KT 7000 -RA NCD 15/09 Q1027 WHT
  • 121955Z AUTO 05004KT 9999 NCD 15/09 Q1027 BLU
  • 121925Z AUTO 06005KT 9999 NCD 16/10 Q1027 BLU

TAF TAF EBFN
Valide du 12 à 19h jusqu'au 13 à 07h UTC


121541Z 1219/1307 01010KT 9999 FEW050 BKN250
BECMG 1221/1223 08005KT BKN250
PROB40
TEMPO 1303/1307 VRB03KT 6000



MET'MAP, la Météo Aéronautique d'un coup d'oeil ! - Copyright ORBIFLY Décembre 2007 - Disclaimer

ORBIFLY MET'MAP TEAM :

Programmation & Développement : Alexandra Zaïnal
Sur une idée originale de : Baudouin d'Aumeries
Assistance à la programmation : Marc-Olivier Méhu
Soutien technique & logistique : Manuel Goepfert

Contact : metmap@orbifly.com




SOURCES & CREDITS :

   NOAA